sensor_id;sensor_type;location;lat;lon;timestamp;P1;durP1;ratioP1;P2;durP2;ratioP2
66946;SDS011;53853;51.982;5.928;2023-09-12T00:02:05;21.65;;;18.33;;
66946;SDS011;53853;51.982;5.928;2023-09-12T00:04:35;13.77;;;12.38;;
66946;SDS011;53853;51.982;5.928;2023-09-12T00:07:05;19.58;;;17.48;;
66946;SDS011;53853;51.982;5.928;2023-09-12T00:09:35;10.13;;;9.02;;
66946;SDS011;53853;51.982;5.928;2023-09-12T00:12:08;16.67;;;14.18;;
66946;SDS011;53853;51.982;5.928;2023-09-12T00:14:38;14.68;;;13.07;;
66946;SDS011;53853;51.982;5.928;2023-09-12T00:17:08;11.68;;;10.48;;
66946;SDS011;53853;51.982;5.928;2023-09-12T00:19:38;10.73;;;9.63;;
66946;SDS011;53853;51.982;5.928;2023-09-12T00:22:08;13.85;;;9.05;;
66946;SDS011;53853;51.982;5.928;2023-09-12T00:24:38;11.38;;;10.27;;
66946;SDS011;53853;51.982;5.928;2023-09-12T00:27:11;12.50;;;10.73;;
66946;SDS011;53853;51.982;5.928;2023-09-12T00:29:41;13.80;;;12.20;;
66946;SDS011;53853;51.982;5.928;2023-09-12T00:32:12;14.98;;;13.43;;
66946;SDS011;53853;51.982;5.928;2023-09-12T00:34:42;15.27;;;13.68;;
66946;SDS011;53853;51.982;5.928;2023-09-12T00:37:12;14.15;;;12.65;;
66946;SDS011;53853;51.982;5.928;2023-09-12T00:39:42;12.77;;;11.48;;
66946;SDS011;53853;51.982;5.928;2023-09-12T00:42:15;12.60;;;11.30;;
66946;SDS011;53853;51.982;5.928;2023-09-12T00:44:45;13.18;;;11.48;;
66946;SDS011;53853;51.982;5.928;2023-09-12T00:47:15;14.43;;;13.00;;
66946;SDS011;53853;51.982;5.928;2023-09-12T00:49:46;12.18;;;10.85;;
66946;SDS011;53853;51.982;5.928;2023-09-12T00:52:18;10.80;;;9.13;;
66946;SDS011;53853;51.982;5.928;2023-09-12T00:54:49;23.20;;;20.33;;
66946;SDS011;53853;51.982;5.928;2023-09-12T00:57:22;24.45;;;21.80;;
66946;SDS011;53853;51.982;5.928;2023-09-12T00:59:53;16.08;;;14.50;;
66946;SDS011;53853;51.982;5.928;2023-09-12T01:02:24;16.85;;;15.15;;
66946;SDS011;53853;51.982;5.928;2023-09-12T01:04:54;11.77;;;10.57;;
66946;SDS011;53853;51.982;5.928;2023-09-12T01:07:24;11.73;;;10.63;;
66946;SDS011;53853;51.982;5.928;2023-09-12T01:09:54;14.07;;;12.57;;
66946;SDS011;53853;51.982;5.928;2023-09-12T01:12:26;17.55;;;15.43;;
66946;SDS011;53853;51.982;5.928;2023-09-12T01:14:57;16.08;;;14.38;;
66946;SDS011;53853;51.982;5.928;2023-09-12T01:17:27;15.07;;;13.45;;
66946;SDS011;53853;51.982;5.928;2023-09-12T01:19:57;16.58;;;14.23;;
66946;SDS011;53853;51.982;5.928;2023-09-12T01:22:40;17.25;;;15.45;;
66946;SDS011;53853;51.982;5.928;2023-09-12T01:25:41;17.02;;;15.27;;
66946;SDS011;53853;51.982;5.928;2023-09-12T01:28:30;14.02;;;12.63;;
66946;SDS011;53853;51.982;5.928;2023-09-12T01:31:03;15.73;;;13.05;;
66946;SDS011;53853;51.982;5.928;2023-09-12T01:33:34;15.85;;;14.00;;
66946;SDS011;53853;51.982;5.928;2023-09-12T01:36:04;15.15;;;13.63;;
66946;SDS011;53853;51.982;5.928;2023-09-12T01:38:34;20.33;;;16.65;;
66946;SDS011;53853;51.982;5.928;2023-09-12T01:41:04;16.83;;;15.02;;
66946;SDS011;53853;51.982;5.928;2023-09-12T01:43:37;15.02;;;13.43;;
66946;SDS011;53853;51.982;5.928;2023-09-12T01:46:08;14.57;;;12.48;;
66946;SDS011;53853;51.982;5.928;2023-09-12T01:48:38;14.40;;;12.90;;
66946;SDS011;53853;51.982;5.928;2023-09-12T01:51:10;14.77;;;13.07;;
66946;SDS011;53853;51.982;5.928;2023-09-12T01:53:41;14.07;;;12.57;;
66946;SDS011;53853;51.982;5.928;2023-09-12T01:56:13;13.40;;;12.10;;
66946;SDS011;53853;51.982;5.928;2023-09-12T01:58:46;13.27;;;11.88;;
66946;SDS011;53853;51.982;5.928;2023-09-12T02:01:16;16.00;;;14.40;;
66946;SDS011;53853;51.982;5.928;2023-09-12T02:03:46;15.85;;;14.00;;
66946;SDS011;53853;51.982;5.928;2023-09-12T02:06:16;15.38;;;13.88;;
66946;SDS011;53853;51.982;5.928;2023-09-12T02:08:46;14.73;;;13.15;;
66946;SDS011;53853;51.982;5.928;2023-09-12T02:11:16;16.02;;;14.32;;
66946;SDS011;53853;51.982;5.928;2023-09-12T02:13:48;14.60;;;13.15;;
66946;SDS011;53853;51.982;5.928;2023-09-12T02:16:18;14.93;;;13.35;;
66946;SDS011;53853;51.982;5.928;2023-09-12T02:18:48;11.40;;;10.25;;
66946;SDS011;53853;51.982;5.928;2023-09-12T02:21:18;10.82;;;9.68;;
66946;SDS011;53853;51.982;5.928;2023-09-12T02:23:48;14.45;;;12.95;;
66946;SDS011;53853;51.982;5.928;2023-09-12T02:26:19;14.35;;;12.80;;
66946;SDS011;53853;51.982;5.928;2023-09-12T02:28:51;16.23;;;14.45;;
66946;SDS011;53853;51.982;5.928;2023-09-12T02:31:21;13.43;;;11.73;;
66946;SDS011;53853;51.982;5.928;2023-09-12T02:33:51;11.95;;;10.68;;
66946;SDS011;53853;51.982;5.928;2023-09-12T02:36:21;12.68;;;11.45;;
66946;SDS011;53853;51.982;5.928;2023-09-12T02:38:51;12.73;;;11.43;;
66946;SDS011;53853;51.982;5.928;2023-09-12T02:41:21;13.60;;;12.20;;
66946;SDS011;53853;51.982;5.928;2023-09-12T02:43:55;11.88;;;10.50;;
66946;SDS011;53853;51.982;5.928;2023-09-12T02:46:25;12.35;;;11.20;;
66946;SDS011;53853;51.982;5.928;2023-09-12T02:48:54;11.95;;;10.82;;
66946;SDS011;53853;51.982;5.928;2023-09-12T02:51:24;11.45;;;10.27;;
66946;SDS011;53853;51.982;5.928;2023-09-12T02:53:54;12.88;;;11.57;;
66946;SDS011;53853;51.982;5.928;2023-09-12T02:56:24;14.40;;;12.45;;
66946;SDS011;53853;51.982;5.928;2023-09-12T02:58:57;14.10;;;12.70;;
66946;SDS011;53853;51.982;5.928;2023-09-12T03:01:27;14.35;;;12.82;;
66946;SDS011;53853;51.982;5.928;2023-09-12T03:03:57;13.93;;;12.52;;
66946;SDS011;53853;51.982;5.928;2023-09-12T03:06:28;15.27;;;13.65;;
66946;SDS011;53853;51.982;5.928;2023-09-12T03:08:58;13.93;;;12.40;;
66946;SDS011;53853;51.982;5.928;2023-09-12T03:11:29;15.20;;;13.70;;
66946;SDS011;53853;51.982;5.928;2023-09-12T03:14:01;15.43;;;12.82;;
66946;SDS011;53853;51.982;5.928;2023-09-12T03:16:32;12.05;;;10.82;;
66946;SDS011;53853;51.982;5.928;2023-09-12T03:19:03;11.50;;;10.30;;
66946;SDS011;53853;51.982;5.928;2023-09-12T03:21:34;11.25;;;10.02;;
66946;SDS011;53853;51.982;5.928;2023-09-12T03:24:04;12.57;;;11.25;;
66946;SDS011;53853;51.982;5.928;2023-09-12T03:26:35;14.35;;;12.88;;
66946;SDS011;53853;51.982;5.928;2023-09-12T03:29:07;11.85;;;10.55;;
66946;SDS011;53853;51.982;5.928;2023-09-12T03:31:37;10.60;;;9.50;;
66946;SDS011;53853;51.982;5.928;2023-09-12T03:34:07;15.13;;;12.32;;
66946;SDS011;53853;51.982;5.928;2023-09-12T03:36:37;11.63;;;10.43;;
66946;SDS011;53853;51.982;5.928;2023-09-12T03:39:07;10.95;;;9.85;;
66946;SDS011;53853;51.982;5.928;2023-09-12T03:41:39;11.98;;;10.48;;
66946;SDS011;53853;51.982;5.928;2023-09-12T03:44:11;11.73;;;10.38;;
66946;SDS011;53853;51.982;5.928;2023-09-12T03:46:41;13.63;;;12.23;;
66946;SDS011;53853;51.982;5.928;2023-09-12T03:49:11;14.38;;;12.70;;
66946;SDS011;53853;51.982;5.928;2023-09-12T03:51:41;13.50;;;11.68;;
66946;SDS011;53853;51.982;5.928;2023-09-12T03:54:11;9.98;;;8.93;;
66946;SDS011;53853;51.982;5.928;2023-09-12T03:56:41;11.15;;;9.95;;
66946;SDS011;53853;51.982;5.928;2023-09-12T03:59:14;8.40;;;7.60;;
66946;SDS011;53853;51.982;5.928;2023-09-12T04:01:44;11.75;;;10.55;;
66946;SDS011;53853;51.982;5.928;2023-09-12T04:04:14;12.95;;;10.50;;
66946;SDS011;53853;51.982;5.928;2023-09-12T04:06:44;14.20;;;12.02;;
66946;SDS011;53853;51.982;5.928;2023-09-12T04:09:14;10.30;;;9.32;;
66946;SDS011;53853;51.982;5.928;2023-09-12T04:11:44;11.57;;;10.38;;
66946;SDS011;53853;51.982;5.928;2023-09-12T04:14:17;14.55;;;12.43;;
66946;SDS011;53853;51.982;5.928;2023-09-12T04:16:47;16.63;;;14.10;;
66946;SDS011;53853;51.982;5.928;2023-09-12T04:19:17;15.55;;;13.95;;
66946;SDS011;53853;51.982;5.928;2023-09-12T04:21:47;13.25;;;11.82;;
66946;SDS011;53853;51.982;5.928;2023-09-12T04:24:17;10.30;;;9.30;;
66946;SDS011;53853;51.982;5.928;2023-09-12T04:26:47;9.68;;;8.65;;
66946;SDS011;53853;51.982;5.928;2023-09-12T04:29:19;16.92;;;12.77;;
66946;SDS011;53853;51.982;5.928;2023-09-12T04:31:49;16.10;;;14.43;;
66946;SDS011;53853;51.982;5.928;2023-09-12T04:34:25;14.48;;;12.90;;
66946;SDS011;53853;51.982;5.928;2023-09-12T04:36:55;14.73;;;12.90;;
66946;SDS011;53853;51.982;5.928;2023-09-12T04:39:25;17.17;;;12.60;;
66946;SDS011;53853;51.982;5.928;2023-09-12T04:41:56;14.63;;;13.13;;
66946;SDS011;53853;51.982;5.928;2023-09-12T04:44:28;11.38;;;9.85;;
66946;SDS011;53853;51.982;5.928;2023-09-12T04:47:03;11.02;;;9.85;;
66946;SDS011;53853;51.982;5.928;2023-09-12T04:49:33;12.35;;;11.05;;
66946;SDS011;53853;51.982;5.928;2023-09-12T04:52:04;20.55;;;15.73;;
66946;SDS011;53853;51.982;5.928;2023-09-12T04:54:34;13.35;;;12.02;;
66946;SDS011;53853;51.982;5.928;2023-09-12T04:57:04;15.05;;;13.48;;
66946;SDS011;53853;51.982;5.928;2023-09-12T04:59:37;38.55;;;29.15;;
66946;SDS011;53853;51.982;5.928;2023-09-12T05:02:07;31.48;;;25.98;;
66946;SDS011;53853;51.982;5.928;2023-09-12T05:04:38;27.27;;;24.45;;
66946;SDS011;53853;51.982;5.928;2023-09-12T05:07:08;42.75;;;33.95;;
66946;SDS011;53853;51.982;5.928;2023-09-12T05:09:37;49.40;;;41.00;;
66946;SDS011;53853;51.982;5.928;2023-09-12T05:12:08;36.50;;;31.15;;
66946;SDS011;53853;51.982;5.928;2023-09-12T05:14:41;30.50;;;24.90;;
66946;SDS011;53853;51.982;5.928;2023-09-12T05:17:11;27.48;;;24.10;;
66946;SDS011;53853;51.982;5.928;2023-09-12T05:19:40;29.50;;;22.77;;
66946;SDS011;53853;51.982;5.928;2023-09-12T05:22:12;26.60;;;23.35;;
66946;SDS011;53853;51.982;5.928;2023-09-12T05:24:42;25.08;;;22.38;;
66946;SDS011;53853;51.982;5.928;2023-09-12T05:27:12;32.28;;;27.17;;
66946;SDS011;53853;51.982;5.928;2023-09-12T05:29:44;28.58;;;25.20;;
66946;SDS011;53853;51.982;5.928;2023-09-12T05:32:14;32.00;;;24.05;;
66946;SDS011;53853;51.982;5.928;2023-09-12T05:34:44;21.45;;;19.15;;
66946;SDS011;53853;51.982;5.928;2023-09-12T05:37:16;58.47;;;45.47;;
66946;SDS011;53853;51.982;5.928;2023-09-12T05:39:46;40.10;;;33.78;;
66946;SDS011;53853;51.982;5.928;2023-09-12T05:42:16;29.67;;;25.40;;
66946;SDS011;53853;51.982;5.928;2023-09-12T05:44:50;27.48;;;23.90;;
66946;SDS011;53853;51.982;5.928;2023-09-12T05:47:22;24.42;;;21.75;;
66946;SDS011;53853;51.982;5.928;2023-09-12T05:49:50;28.17;;;25.15;;
66946;SDS011;53853;51.982;5.928;2023-09-12T05:52:20;28.98;;;25.42;;
66946;SDS011;53853;51.982;5.928;2023-09-12T05:54:50;30.73;;;27.52;;
66946;SDS011;53853;51.982;5.928;2023-09-12T05:57:20;24.13;;;21.58;;
66946;SDS011;53853;51.982;5.928;2023-09-12T05:59:53;25.63;;;22.60;;
66946;SDS011;53853;51.982;5.928;2023-09-12T06:02:23;18.48;;;15.95;;
66946;SDS011;53853;51.982;5.928;2023-09-12T06:04:53;37.03;;;32.67;;
66946;SDS011;53853;51.982;5.928;2023-09-12T06:07:23;28.77;;;25.65;;
66946;SDS011;53853;51.982;5.928;2023-09-12T06:09:53;28.38;;;25.17;;
66946;SDS011;53853;51.982;5.928;2023-09-12T06:12:23;24.05;;;21.30;;
66946;SDS011;53853;51.982;5.928;2023-09-12T06:14:55;29.83;;;25.52;;
66946;SDS011;53853;51.982;5.928;2023-09-12T06:17:25;24.88;;;22.23;;
66946;SDS011;53853;51.982;5.928;2023-09-12T06:19:55;30.13;;;26.30;;
66946;SDS011;53853;51.982;5.928;2023-09-12T06:22:25;42.75;;;37.88;;
66946;SDS011;53853;51.982;5.928;2023-09-12T06:24:55;30.55;;;26.35;;
66946;SDS011;53853;51.982;5.928;2023-09-12T06:27:25;26.42;;;22.85;;
66946;SDS011;53853;51.982;5.928;2023-09-12T06:29:59;35.75;;;30.15;;
66946;SDS011;53853;51.982;5.928;2023-09-12T06:32:29;33.10;;;27.48;;
66946;SDS011;53853;51.982;5.928;2023-09-12T06:34:59;45.95;;;36.90;;
66946;SDS011;53853;51.982;5.928;2023-09-12T06:37:29;25.83;;;22.73;;
66946;SDS011;53853;51.982;5.928;2023-09-12T06:39:59;33.83;;;27.77;;
66946;SDS011;53853;51.982;5.928;2023-09-12T06:42:29;30.88;;;25.00;;
66946;SDS011;53853;51.982;5.928;2023-09-12T06:45:02;31.13;;;24.40;;
66946;SDS011;53853;51.982;5.928;2023-09-12T06:47:32;30.35;;;26.42;;
66946;SDS011;53853;51.982;5.928;2023-09-12T06:50:02;33.92;;;29.45;;
66946;SDS011;53853;51.982;5.928;2023-09-12T06:52:32;45.50;;;35.92;;
66946;SDS011;53853;51.982;5.928;2023-09-12T06:55:02;42.08;;;35.45;;
66946;SDS011;53853;51.982;5.928;2023-09-12T06:57:33;30.60;;;25.48;;
66946;SDS011;53853;51.982;5.928;2023-09-12T07:00:06;22.30;;;18.52;;
66946;SDS011;53853;51.982;5.928;2023-09-12T07:02:37;27.77;;;24.73;;
66946;SDS011;53853;51.982;5.928;2023-09-12T07:05:08;44.47;;;34.92;;
66946;SDS011;53853;51.982;5.928;2023-09-12T07:07:38;34.53;;;29.77;;
66946;SDS011;53853;51.982;5.928;2023-09-12T07:10:08;28.58;;;23.90;;
66946;SDS011;53853;51.982;5.928;2023-09-12T07:12:38;24.45;;;20.77;;
66946;SDS011;53853;51.982;5.928;2023-09-12T07:15:11;19.73;;;16.73;;
66946;SDS011;53853;51.982;5.928;2023-09-12T07:17:41;22.17;;;19.88;;
66946;SDS011;53853;51.982;5.928;2023-09-12T07:20:11;19.10;;;16.92;;
66946;SDS011;53853;51.982;5.928;2023-09-12T07:22:43;22.02;;;17.20;;
66946;SDS011;53853;51.982;5.928;2023-09-12T07:25:14;26.80;;;23.55;;
66946;SDS011;53853;51.982;5.928;2023-09-12T07:27:44;29.02;;;24.58;;
66946;SDS011;53853;51.982;5.928;2023-09-12T07:30:17;31.90;;;27.52;;
66946;SDS011;53853;51.982;5.928;2023-09-12T07:32:47;26.33;;;22.80;;
66946;SDS011;53853;51.982;5.928;2023-09-12T07:35:17;27.38;;;24.38;;
66946;SDS011;53853;51.982;5.928;2023-09-12T07:37:49;20.75;;;18.52;;
66946;SDS011;53853;51.982;5.928;2023-09-12T07:40:19;22.65;;;20.10;;
66946;SDS011;53853;51.982;5.928;2023-09-12T07:42:49;19.23;;;16.25;;
66946;SDS011;53853;51.982;5.928;2023-09-12T07:45:22;19.85;;;17.75;;
66946;SDS011;53853;51.982;5.928;2023-09-12T07:47:52;15.60;;;13.80;;
66946;SDS011;53853;51.982;5.928;2023-09-12T07:50:22;17.13;;;15.23;;
66946;SDS011;53853;51.982;5.928;2023-09-12T07:52:52;16.52;;;14.75;;
66946;SDS011;53853;51.982;5.928;2023-09-12T07:55:21;23.45;;;20.88;;
66946;SDS011;53853;51.982;5.928;2023-09-12T07:57:51;38.05;;;32.10;;
66946;SDS011;53853;51.982;5.928;2023-09-12T08:00:24;30.95;;;26.58;;
66946;SDS011;53853;51.982;5.928;2023-09-12T08:02:54;24.73;;;21.67;;
66946;SDS011;53853;51.982;5.928;2023-09-12T08:05:24;17.88;;;15.50;;
66946;SDS011;53853;51.982;5.928;2023-09-12T08:07:54;21.35;;;17.83;;
66946;SDS011;53853;51.982;5.928;2023-09-12T08:10:24;19.35;;;16.55;;
66946;SDS011;53853;51.982;5.928;2023-09-12T08:12:54;16.55;;;14.63;;
66946;SDS011;53853;51.982;5.928;2023-09-12T08:15:27;18.20;;;14.90;;
66946;SDS011;53853;51.982;5.928;2023-09-12T08:17:56;13.48;;;11.68;;
66946;SDS011;53853;51.982;5.928;2023-09-12T08:20:26;16.40;;;14.70;;
66946;SDS011;53853;51.982;5.928;2023-09-12T08:22:56;17.65;;;14.38;;
66946;SDS011;53853;51.982;5.928;2023-09-12T08:25:26;16.55;;;14.80;;
66946;SDS011;53853;51.982;5.928;2023-09-12T08:27:56;23.70;;;21.15;;
66946;SDS011;53853;51.982;5.928;2023-09-12T08:30:29;31.20;;;24.90;;
66946;SDS011;53853;51.982;5.928;2023-09-12T08:32:59;20.88;;;17.17;;
66946;SDS011;53853;51.982;5.928;2023-09-12T08:35:29;14.60;;;13.10;;
66946;SDS011;53853;51.982;5.928;2023-09-12T08:37:59;17.38;;;14.50;;
66946;SDS011;53853;51.982;5.928;2023-09-12T08:40:29;18.42;;;14.82;;
66946;SDS011;53853;51.982;5.928;2023-09-12T08:43:01;26.63;;;23.80;;
66946;SDS011;53853;51.982;5.928;2023-09-12T08:45:35;24.80;;;20.33;;
66946;SDS011;53853;51.982;5.928;2023-09-12T08:48:05;26.80;;;21.90;;
66946;SDS011;53853;51.982;5.928;2023-09-12T08:50:36;25.33;;;20.33;;
66946;SDS011;53853;51.982;5.928;2023-09-12T08:53:06;29.42;;;25.13;;
66946;SDS011;53853;51.982;5.928;2023-09-12T08:55:36;34.03;;;27.52;;
66946;SDS011;53853;51.982;5.928;2023-09-12T08:58:06;24.88;;;20.90;;
66946;SDS011;53853;51.982;5.928;2023-09-12T09:00:39;23.10;;;19.80;;
66946;SDS011;53853;51.982;5.928;2023-09-12T09:03:11;17.48;;;15.68;;
66946;SDS011;53853;51.982;5.928;2023-09-12T09:05:42;32.03;;;24.73;;
66946;SDS011;53853;51.982;5.928;2023-09-12T09:08:14;17.42;;;15.32;;
66946;SDS011;53853;51.982;5.928;2023-09-12T09:10:54;11.65;;;10.45;;
66946;SDS011;53853;51.982;5.928;2023-09-12T09:13:24;27.63;;;24.25;;
66946;SDS011;53853;51.982;5.928;2023-09-12T09:18:52;22.65;;;19.25;;
66946;SDS011;53853;51.982;5.928;2023-09-12T09:21:24;16.75;;;14.85;;
66946;SDS011;53853;51.982;5.928;2023-09-12T09:23:57;16.23;;;13.70;;
66946;SDS011;53853;51.982;5.928;2023-09-12T09:26:40;19.52;;;17.45;;
66946;SDS011;53853;51.982;5.928;2023-09-12T09:29:13;16.92;;;15.02;;
66946;SDS011;53853;51.982;5.928;2023-09-12T09:31:47;28.33;;;23.02;;
66946;SDS011;53853;51.982;5.928;2023-09-12T09:34:18;24.85;;;21.10;;
66946;SDS011;53853;51.982;5.928;2023-09-12T09:36:50;18.92;;;16.42;;
66946;SDS011;53853;51.982;5.928;2023-09-12T09:39:22;25.90;;;20.33;;
66946;SDS011;53853;51.982;5.928;2023-09-12T09:41:54;13.30;;;11.90;;
66946;SDS011;53853;51.982;5.928;2023-09-12T09:44:25;8.95;;;7.53;;
66946;SDS011;53853;51.982;5.928;2023-09-12T09:47:00;11.98;;;10.10;;
66946;SDS011;53853;51.982;5.928;2023-09-12T09:49:31;12.40;;;9.65;;
66946;SDS011;53853;51.982;5.928;2023-09-12T09:52:03;26.20;;;22.20;;
66946;SDS011;53853;51.982;5.928;2023-09-12T09:54:33;19.38;;;17.33;;
66946;SDS011;53853;51.982;5.928;2023-09-12T09:57:04;27.83;;;24.77;;
66946;SDS011;53853;51.982;5.928;2023-09-12T09:59:33;19.08;;;16.52;;
66946;SDS011;53853;51.982;5.928;2023-09-12T10:02:06;14.13;;;12.25;;
66946;SDS011;53853;51.982;5.928;2023-09-12T10:04:48;18.35;;;16.45;;
66946;SDS011;53853;51.982;5.928;2023-09-12T10:07:22;12.30;;;11.02;;
66946;SDS011;53853;51.982;5.928;2023-09-12T10:09:53;9.48;;;8.35;;
66946;SDS011;53853;51.982;5.928;2023-09-12T10:12:23;8.90;;;7.13;;
66946;SDS011;53853;51.982;5.928;2023-09-12T10:14:54;13.23;;;11.20;;
66946;SDS011;53853;51.982;5.928;2023-09-12T10:17:30;7.53;;;6.53;;
66946;SDS011;53853;51.982;5.928;2023-09-12T10:20:07;7.53;;;6.10;;
66946;SDS011;53853;51.982;5.928;2023-09-12T10:22:43;15.50;;;13.60;;
66946;SDS011;53853;51.982;5.928;2023-09-12T10:25:20;14.07;;;12.57;;
66946;SDS011;53853;51.982;5.928;2023-09-12T10:27:52;12.77;;;11.27;;
66946;SDS011;53853;51.982;5.928;2023-09-12T10:30:23;16.08;;;14.32;;
66946;SDS011;53853;51.982;5.928;2023-09-12T10:32:57;16.83;;;15.02;;
66946;SDS011;53853;51.982;5.928;2023-09-12T10:35:29;10.23;;;8.60;;
66946;SDS011;53853;51.982;5.928;2023-09-12T10:38:01;9.65;;;7.35;;
66946;SDS011;53853;51.982;5.928;2023-09-12T10:40:34;5.80;;;5.17;;
66946;SDS011;53853;51.982;5.928;2023-09-12T10:43:05;10.10;;;8.15;;
66946;SDS011;53853;51.982;5.928;2023-09-12T10:45:37;6.47;;;5.43;;
66946;SDS011;53853;51.982;5.928;2023-09-12T10:48:11;7.05;;;5.93;;
66946;SDS011;53853;51.982;5.928;2023-09-12T10:53:11;12.27;;;9.60;;
66946;SDS011;53853;51.982;5.928;2023-09-12T10:55:42;9.45;;;7.82;;
66946;SDS011;53853;51.982;5.928;2023-09-12T10:58:26;10.38;;;9.15;;
66946;SDS011;53853;51.982;5.928;2023-09-12T11:03:53;10.15;;;7.95;;
66946;SDS011;53853;51.982;5.928;2023-09-12T11:06:24;5.97;;;4.40;;
66946;SDS011;53853;51.982;5.928;2023-09-12T11:11:46;7.47;;;5.50;;
66946;SDS011;53853;51.982;5.928;2023-09-12T11:14:17;7.97;;;7.18;;
66946;SDS011;53853;51.982;5.928;2023-09-12T11:19:49;10.18;;;8.13;;
66946;SDS011;53853;51.982;5.928;2023-09-12T11:22:21;8.77;;;7.35;;
66946;SDS011;53853;51.982;5.928;2023-09-12T11:24:52;8.38;;;7.05;;
66946;SDS011;53853;51.982;5.928;2023-09-12T11:27:23;5.85;;;5.15;;
66946;SDS011;53853;51.982;5.928;2023-09-12T11:30:03;9.80;;;7.18;;
66946;SDS011;53853;51.982;5.928;2023-09-12T11:32:35;7.43;;;5.10;;
66946;SDS011;53853;51.982;5.928;2023-09-12T11:35:09;6.53;;;5.22;;
66946;SDS011;53853;51.982;5.928;2023-09-12T11:37:40;7.63;;;6.63;;
66946;SDS011;53853;51.982;5.928;2023-09-12T11:40:20;6.45;;;5.72;;
66946;SDS011;53853;51.982;5.928;2023-09-12T11:42:52;6.75;;;4.88;;
66946;SDS011;53853;51.982;5.928;2023-09-12T11:45:22;8.35;;;7.22;;
66946;SDS011;53853;51.982;5.928;2023-09-12T11:47:53;6.05;;;4.88;;
66946;SDS011;53853;51.982;5.928;2023-09-12T11:50:30;7.05;;;6.35;;
66946;SDS011;53853;51.982;5.928;2023-09-12T11:53:05;6.78;;;5.22;;
66946;SDS011;53853;51.982;5.928;2023-09-12T11:55:37;7.72;;;6.93;;
66946;SDS011;53853;51.982;5.928;2023-09-12T11:58:11;6.03;;;5.13;;
66946;SDS011;53853;51.982;5.928;2023-09-12T12:00:44;6.28;;;5.68;;
66946;SDS011;53853;51.982;5.928;2023-09-12T12:03:15;6.05;;;3.97;;
66946;SDS011;53853;51.982;5.928;2023-09-12T12:05:49;4.88;;;4.38;;
66946;SDS011;53853;51.982;5.928;2023-09-12T12:08:19;4.03;;;3.33;;
66946;SDS011;53853;51.982;5.928;2023-09-12T12:10:49;5.68;;;4.32;;
66946;SDS011;53853;51.982;5.928;2023-09-12T12:13:20;4.43;;;3.80;;
66946;SDS011;53853;51.982;5.928;2023-09-12T12:15:51;6.72;;;4.97;;
66946;SDS011;53853;51.982;5.928;2023-09-12T12:18:21;8.75;;;7.13;;
66946;SDS011;53853;51.982;5.928;2023-09-12T12:20:54;8.48;;;5.88;;
66946;SDS011;53853;51.982;5.928;2023-09-12T12:23:25;5.10;;;4.05;;
66946;SDS011;53853;51.982;5.928;2023-09-12T12:25:55;30.02;;;27.55;;
66946;SDS011;53853;51.982;5.928;2023-09-12T12:28:25;10.90;;;8.10;;
66946;SDS011;53853;51.982;5.928;2023-09-12T12:30:55;4.80;;;4.30;;
66946;SDS011;53853;51.982;5.928;2023-09-12T12:33:25;4.82;;;3.78;;
66946;SDS011;53853;51.982;5.928;2023-09-12T12:36:02;3.10;;;2.50;;
66946;SDS011;53853;51.982;5.928;2023-09-12T12:38:33;4.00;;;2.85;;
66946;SDS011;53853;51.982;5.928;2023-09-12T12:41:05;8.32;;;6.75;;
66946;SDS011;53853;51.982;5.928;2023-09-12T12:43:35;4.65;;;3.35;;
66946;SDS011;53853;51.982;5.928;2023-09-12T12:46:09;3.65;;;2.83;;
66946;SDS011;53853;51.982;5.928;2023-09-12T12:48:42;6.57;;;5.03;;
66946;SDS011;53853;51.982;5.928;2023-09-12T12:51:16;5.47;;;4.40;;
66946;SDS011;53853;51.982;5.928;2023-09-12T12:53:49;4.07;;;2.55;;
66946;SDS011;53853;51.982;5.928;2023-09-12T12:56:20;7.13;;;5.90;;
66946;SDS011;53853;51.982;5.928;2023-09-12T12:58:51;4.72;;;3.35;;
66946;SDS011;53853;51.982;5.928;2023-09-12T13:01:24;3.97;;;2.53;;
66946;SDS011;53853;51.982;5.928;2023-09-12T13:03:54;5.30;;;3.40;;
66946;SDS011;53853;51.982;5.928;2023-09-12T13:06:26;3.13;;;2.17;;
66946;SDS011;53853;51.982;5.928;2023-09-12T13:09:01;4.32;;;3.65;;
66946;SDS011;53853;51.982;5.928;2023-09-12T13:11:32;5.07;;;3.47;;
66946;SDS011;53853;51.982;5.928;2023-09-12T13:14:03;4.85;;;3.60;;
66946;SDS011;53853;51.982;5.928;2023-09-12T13:16:36;4.10;;;2.08;;
66946;SDS011;53853;51.982;5.928;2023-09-12T13:19:07;3.40;;;2.50;;
66946;SDS011;53853;51.982;5.928;2023-09-12T13:21:41;3.53;;;2.47;;
66946;SDS011;53853;51.982;5.928;2023-09-12T13:24:10;4.67;;;3.57;;
66946;SDS011;53853;51.982;5.928;2023-09-12T13:26:40;7.25;;;5.55;;
66946;SDS011;53853;51.982;5.928;2023-09-12T13:29:10;8.55;;;5.32;;
66946;SDS011;53853;51.982;5.928;2023-09-12T13:31:40;4.72;;;4.00;;
66946;SDS011;53853;51.982;5.928;2023-09-12T13:34:10;5.03;;;3.25;;
66946;SDS011;53853;51.982;5.928;2023-09-12T13:36:43;4.35;;;3.22;;
66946;SDS011;53853;51.982;5.928;2023-09-12T13:39:13;4.07;;;3.53;;
66946;SDS011;53853;51.982;5.928;2023-09-12T13:41:43;4.70;;;3.80;;
66946;SDS011;53853;51.982;5.928;2023-09-12T13:44:13;5.38;;;3.60;;
66946;SDS011;53853;51.982;5.928;2023-09-12T13:46:43;4.45;;;3.50;;
66946;SDS011;53853;51.982;5.928;2023-09-12T13:49:13;6.88;;;5.40;;
66946;SDS011;53853;51.982;5.928;2023-09-12T13:51:46;3.72;;;3.15;;
66946;SDS011;53853;51.982;5.928;2023-09-12T13:54:15;3.80;;;3.00;;
66946;SDS011;53853;51.982;5.928;2023-09-12T13:56:45;3.25;;;2.60;;
66946;SDS011;53853;51.982;5.928;2023-09-12T13:59:15;4.68;;;2.83;;
66946;SDS011;53853;51.982;5.928;2023-09-12T14:01:46;8.45;;;6.82;;
66946;SDS011;53853;51.982;5.928;2023-09-12T14:04:16;9.32;;;6.70;;
66946;SDS011;53853;51.982;5.928;2023-09-12T14:06:49;6.70;;;4.32;;
66946;SDS011;53853;51.982;5.928;2023-09-12T14:09:18;3.77;;;3.13;;
66946;SDS011;53853;51.982;5.928;2023-09-12T14:11:48;5.53;;;4.32;;
66946;SDS011;53853;51.982;5.928;2023-09-12T14:14:18;3.40;;;2.67;;
66946;SDS011;53853;51.982;5.928;2023-09-12T14:16:48;2.90;;;2.15;;
66946;SDS011;53853;51.982;5.928;2023-09-12T14:19:18;3.80;;;3.15;;
66946;SDS011;53853;51.982;5.928;2023-09-12T14:21:51;5.28;;;3.60;;
66946;SDS011;53853;51.982;5.928;2023-09-12T14:24:21;4.38;;;3.47;;
66946;SDS011;53853;51.982;5.928;2023-09-12T14:26:51;3.42;;;2.45;;
66946;SDS011;53853;51.982;5.928;2023-09-12T14:29:21;3.92;;;2.63;;
66946;SDS011;53853;51.982;5.928;2023-09-12T14:31:53;3.65;;;2.10;;
66946;SDS011;53853;51.982;5.928;2023-09-12T14:34:24;2.65;;;2.03;;
66946;SDS011;53853;51.982;5.928;2023-09-12T14:36:57;2.92;;;2.00;;
66946;SDS011;53853;51.982;5.928;2023-09-12T14:39:28;3.20;;;2.00;;
66946;SDS011;53853;51.982;5.928;2023-09-12T14:41:57;3.17;;;1.90;;
66946;SDS011;53853;51.982;5.928;2023-09-12T14:47:01;7.80;;;5.97;;
66946;SDS011;53853;51.982;5.928;2023-09-12T14:49:31;5.55;;;3.55;;
66946;SDS011;53853;51.982;5.928;2023-09-12T14:52:04;7.43;;;6.53;;
66946;SDS011;53853;51.982;5.928;2023-09-12T14:54:34;5.13;;;4.18;;
66946;SDS011;53853;51.982;5.928;2023-09-12T14:57:04;7.38;;;6.22;;
66946;SDS011;53853;51.982;5.928;2023-09-12T14:59:34;8.45;;;6.10;;
66946;SDS011;53853;51.982;5.928;2023-09-12T15:02:04;5.03;;;3.90;;
66946;SDS011;53853;51.982;5.928;2023-09-12T15:04:34;6.00;;;4.60;;
66946;SDS011;53853;51.982;5.928;2023-09-12T15:07:07;5.25;;;3.05;;
66946;SDS011;53853;51.982;5.928;2023-09-12T15:09:36;4.07;;;3.60;;
66946;SDS011;53853;51.982;5.928;2023-09-12T15:12:07;4.63;;;3.58;;